createdAt,value
2017-07-01T07:19:36.452Z,27.18
2017-07-01T07:30:46.317Z,21.48
2017-07-01T10:47:08.256Z,8.32
2017-07-01T11:00:18.632Z,6.52
2017-07-01T11:05:23.563Z,6.67
2017-07-01T11:07:52.232Z,5.68
2017-07-01T11:10:20.145Z,5.95
2017-07-01T11:12:50.736Z,5.82
2017-07-01T11:17:58.487Z,5.77
2017-07-01T11:30:53.694Z,4.67
2017-07-01T11:41:16.412Z,4.08
2017-07-01T11:43:45.036Z,4.83
2017-07-01T11:46:22.738Z,3.80
2017-07-01T15:46:03.140Z,8.23
2017-07-01T15:48:31.103Z,8.03
2017-07-01T15:53:29.734Z,7.63
2017-07-01T15:58:37.229Z,6.97
2017-07-01T16:06:50.986Z,9.18
2017-07-01T16:11:55.108Z,7.88
2017-07-01T16:14:27.064Z,6.52
2017-07-01T19:03:14.644Z,13.33
2017-07-01T19:05:42.017Z,16.58
2017-07-01T19:08:10.560Z,15.97
2017-07-01T19:10:38.072Z,14.18
2017-07-01T19:13:05.482Z,16.82
2017-07-01T19:15:33.468Z,16.52
2017-07-01T19:18:00.588Z,14.75
2017-07-01T19:20:27.494Z,16.78
2017-07-01T19:22:59.174Z,16.47
2017-07-01T19:25:27.951Z,15.15
2017-07-01T19:27:57.999Z,18.12
2017-07-01T19:30:25.260Z,17.03
2017-07-01T19:32:52.694Z,16.73
2017-07-01T19:35:22.586Z,16.70
2017-07-01T19:37:51.466Z,23.10
2017-07-01T21:09:52.656Z,26.67
2017-07-01T21:12:29.273Z,20.40
2017-07-01T21:14:56.358Z,19.37
2017-07-01T21:17:24.830Z,19.37
2017-07-01T21:19:52.738Z,20.40
2017-07-01T21:25:00.823Z,22.77
2017-07-01T21:27:29.194Z,22.70
2017-07-01T21:29:58.442Z,20.10
2017-07-01T21:32:28.132Z,20.00
2017-07-01T21:35:01.160Z,22.85
2017-07-01T21:42:38.198Z,19.90
2017-07-01T21:45:07.487Z,24.15
2017-07-01T21:47:35.643Z,20.10
2017-07-01T21:50:02.790Z,23.07
2017-07-01T21:52:30.622Z,18.93
2017-07-01T21:57:32.520Z,18.80
2017-07-01T21:59:59.674Z,20.38
2017-07-01T22:02:30.146Z,21.22
2017-07-01T22:04:58.254Z,20.42
2017-07-01T22:09:58.516Z,19.73
2017-07-01T22:12:26.150Z,17.88
2017-07-01T22:14:55.932Z,19.88
2017-07-01T22:17:29.012Z,17.98
2017-07-01T22:20:04.556Z,18.38
2017-07-01T22:22:31.952Z,18.25
2017-07-01T22:25:06.965Z,24.33
2017-07-01T22:27:38.985Z,22.33
2017-07-01T22:35:12.259Z,24.42
2017-07-01T22:40:17.347Z,17.45
2017-07-01T22:42:46.771Z,20.13
2017-07-01T22:45:14.065Z,23.00
2017-07-01T22:47:41.079Z,21.25
2017-07-01T22:50:08.000Z,21.67
2017-07-01T22:52:39.535Z,15.32
2017-07-01T22:55:06.759Z,21.13
2017-07-01T22:57:33.737Z,23.52
2017-07-01T23:00:03.517Z,19.63
2017-07-01T23:02:32.063Z,23.10
2017-07-01T23:05:00.746Z,19.22
2017-07-01T23:07:28.445Z,19.82
2017-07-01T23:09:57.207Z,21.15
2017-07-01T23:12:25.274Z,22.38
2017-07-01T23:14:57.113Z,21.48
2017-07-01T23:17:25.365Z,22.10
2017-07-01T23:19:53.120Z,16.25
2017-07-01T23:22:20.940Z,15.87
2017-07-01T23:24:55.262Z,24.67
2017-07-01T23:27:25.912Z,27.95
2017-07-01T23:32:30.082Z,18.03
2017-07-01T23:34:59.289Z,24.48
2017-07-01T23:37:30.298Z,22.78
2017-07-01T23:39:58.214Z,20.67
2017-07-01T23:42:27.328Z,25.50
2017-07-01T23:44:56.172Z,16.38
2017-07-01T23:47:25.374Z,16.88
2017-07-01T23:49:54.111Z,22.72
2017-07-01T23:55:01.362Z,23.82
